Terminal Aerodrome Forecast
Issued by NWS

Home | Current Version | Previous Version | Graphics & Text | Print | Product List | Glossary On
Versions: 1 2 3 4 5 6 7 8 9 10 11 12
000
FTUS43 KMPX 251720
TAFRWF
TAF
KRWF 251720Z 2518/2618 10012G19KT P6SM BKN045 BKN080
     FM252000 09011G17KT P6SM SCT050 BKN080
     FM260400 08004KT P6SM SKC=

USA.gov is the U.S. government's official web portal to all federal, state and local government web resources and services.